sensor_id;sensor_type;location;lat;lon;timestamp;P1;durP1;ratioP1;P2;durP2;ratioP2
10154;SDS011;5118;48.570;7.916;2024-02-21T00:01:15;11.47;;;6.50;;
10154;SDS011;5118;48.570;7.916;2024-02-21T00:03:44;14.40;;;6.73;;
10154;SDS011;5118;48.570;7.916;2024-02-21T00:06:12;13.53;;;6.60;;
10154;SDS011;5118;48.570;7.916;2024-02-21T00:08:40;9.93;;;6.20;;
10154;SDS011;5118;48.570;7.916;2024-02-21T00:11:10;9.40;;;6.37;;
10154;SDS011;5118;48.570;7.916;2024-02-21T00:13:39;11.30;;;5.97;;
10154;SDS011;5118;48.570;7.916;2024-02-21T00:16:07;9.63;;;6.33;;
10154;SDS011;5118;48.570;7.916;2024-02-21T00:18:37;9.20;;;6.17;;
10154;SDS011;5118;48.570;7.916;2024-02-21T00:21:05;10.27;;;5.93;;
10154;SDS011;5118;48.570;7.916;2024-02-21T00:23:33;11.83;;;5.90;;
10154;SDS011;5118;48.570;7.916;2024-02-21T00:26:02;10.27;;;5.73;;
10154;SDS011;5118;48.570;7.916;2024-02-21T00:28:33;10.47;;;5.70;;
10154;SDS011;5118;48.570;7.916;2024-02-21T00:31:02;13.13;;;5.43;;
10154;SDS011;5118;48.570;7.916;2024-02-21T00:33:30;10.70;;;5.97;;
10154;SDS011;5118;48.570;7.916;2024-02-21T00:35:59;9.30;;;5.27;;
10154;SDS011;5118;48.570;7.916;2024-02-21T00:38:27;10.00;;;5.70;;
10154;SDS011;5118;48.570;7.916;2024-02-21T00:40:56;12.50;;;6.07;;
10154;SDS011;5118;48.570;7.916;2024-02-21T00:43:24;11.67;;;5.70;;
10154;SDS011;5118;48.570;7.916;2024-02-21T00:45:54;10.43;;;5.90;;
10154;SDS011;5118;48.570;7.916;2024-02-21T00:48:23;9.73;;;5.47;;
10154;SDS011;5118;48.570;7.916;2024-02-21T00:50:51;8.93;;;5.20;;
10154;SDS011;5118;48.570;7.916;2024-02-21T00:53:20;10.37;;;5.40;;
10154;SDS011;5118;48.570;7.916;2024-02-21T00:55:49;12.33;;;5.67;;
10154;SDS011;5118;48.570;7.916;2024-02-21T00:58:17;11.83;;;5.20;;
10154;SDS011;5118;48.570;7.916;2024-02-21T01:00:46;10.93;;;6.20;;
10154;SDS011;5118;48.570;7.916;2024-02-21T01:03:16;11.57;;;6.03;;
10154;SDS011;5118;48.570;7.916;2024-02-21T01:05:44;10.27;;;5.70;;
10154;SDS011;5118;48.570;7.916;2024-02-21T01:08:13;12.30;;;5.80;;
10154;SDS011;5118;48.570;7.916;2024-02-21T01:10:41;8.73;;;5.83;;
10154;SDS011;5118;48.570;7.916;2024-02-21T01:13:10;12.80;;;5.57;;
10154;SDS011;5118;48.570;7.916;2024-02-21T01:15:38;10.67;;;5.73;;
10154;SDS011;5118;48.570;7.916;2024-02-21T01:18:06;10.70;;;5.17;;
10154;SDS011;5118;48.570;7.916;2024-02-21T01:20:36;10.77;;;4.93;;
10154;SDS011;5118;48.570;7.916;2024-02-21T01:23:05;11.10;;;5.20;;
10154;SDS011;5118;48.570;7.916;2024-02-21T01:25:33;9.93;;;5.27;;
10154;SDS011;5118;48.570;7.916;2024-02-21T01:28:02;9.60;;;5.20;;
10154;SDS011;5118;48.570;7.916;2024-02-21T01:30:31;9.97;;;5.17;;
10154;SDS011;5118;48.570;7.916;2024-02-21T01:32:59;10.33;;;5.03;;
10154;SDS011;5118;48.570;7.916;2024-02-21T01:35:27;12.27;;;5.53;;
10154;SDS011;5118;48.570;7.916;2024-02-21T01:37:57;10.70;;;5.00;;
10154;SDS011;5118;48.570;7.916;2024-02-21T01:40:26;10.23;;;5.43;;
10154;SDS011;5118;48.570;7.916;2024-02-21T01:42:55;8.70;;;5.30;;
10154;SDS011;5118;48.570;7.916;2024-02-21T01:45:23;11.57;;;5.50;;
10154;SDS011;5118;48.570;7.916;2024-02-21T01:47:52;10.40;;;5.00;;
10154;SDS011;5118;48.570;7.916;2024-02-21T01:50:20;10.83;;;5.13;;
10154;SDS011;5118;48.570;7.916;2024-02-21T01:52:51;9.33;;;4.87;;
10154;SDS011;5118;48.570;7.916;2024-02-21T01:55:21;8.47;;;4.80;;
10154;SDS011;5118;48.570;7.916;2024-02-21T01:57:49;10.40;;;5.10;;
10154;SDS011;5118;48.570;7.916;2024-02-21T02:00:18;10.03;;;5.10;;
10154;SDS011;5118;48.570;7.916;2024-02-21T02:02:47;8.90;;;4.80;;
10154;SDS011;5118;48.570;7.916;2024-02-21T02:05:15;12.37;;;4.83;;
10154;SDS011;5118;48.570;7.916;2024-02-21T02:07:45;10.40;;;4.60;;
10154;SDS011;5118;48.570;7.916;2024-02-21T02:10:14;6.83;;;4.77;;
10154;SDS011;5118;48.570;7.916;2024-02-21T02:12:44;9.57;;;4.70;;
10154;SDS011;5118;48.570;7.916;2024-02-21T02:15:12;8.43;;;4.30;;
10154;SDS011;5118;48.570;7.916;2024-02-21T02:17:41;7.50;;;4.20;;
10154;SDS011;5118;48.570;7.916;2024-02-21T02:20:10;7.73;;;4.30;;
10154;SDS011;5118;48.570;7.916;2024-02-21T02:22:39;9.30;;;4.60;;
10154;SDS011;5118;48.570;7.916;2024-02-21T02:25:12;7.60;;;4.60;;
10154;SDS011;5118;48.570;7.916;2024-02-21T02:27:41;8.07;;;4.50;;
10154;SDS011;5118;48.570;7.916;2024-02-21T02:30:12;10.10;;;4.10;;
10154;SDS011;5118;48.570;7.916;2024-02-21T02:32:44;9.17;;;4.20;;
10154;SDS011;5118;48.570;7.916;2024-02-21T02:35:13;7.50;;;4.50;;
10154;SDS011;5118;48.570;7.916;2024-02-21T02:37:47;8.17;;;4.80;;
10154;SDS011;5118;48.570;7.916;2024-02-21T02:40:17;9.03;;;4.57;;
10154;SDS011;5118;48.570;7.916;2024-02-21T02:42:46;7.23;;;4.50;;
10154;SDS011;5118;48.570;7.916;2024-02-21T02:45:15;8.57;;;5.20;;
10154;SDS011;5118;48.570;7.916;2024-02-21T02:47:44;10.97;;;5.50;;
10154;SDS011;5118;48.570;7.916;2024-02-21T02:50:13;10.97;;;5.40;;
10154;SDS011;5118;48.570;7.916;2024-02-21T02:52:42;8.30;;;4.80;;
10154;SDS011;5118;48.570;7.916;2024-02-21T02:55:11;10.23;;;5.33;;
10154;SDS011;5118;48.570;7.916;2024-02-21T02:57:41;10.43;;;5.60;;
10154;SDS011;5118;48.570;7.916;2024-02-21T03:00:10;9.10;;;5.03;;
10154;SDS011;5118;48.570;7.916;2024-02-21T03:02:41;8.93;;;4.50;;
10154;SDS011;5118;48.570;7.916;2024-02-21T03:05:12;8.57;;;5.43;;
10154;SDS011;5118;48.570;7.916;2024-02-21T03:07:42;8.27;;;5.10;;
10154;SDS011;5118;48.570;7.916;2024-02-21T03:10:12;9.07;;;5.10;;
10154;SDS011;5118;48.570;7.916;2024-02-21T03:12:45;10.03;;;5.03;;
10154;SDS011;5118;48.570;7.916;2024-02-21T03:15:14;8.83;;;4.60;;
10154;SDS011;5118;48.570;7.916;2024-02-21T03:17:42;8.37;;;5.30;;
10154;SDS011;5118;48.570;7.916;2024-02-21T03:20:11;11.57;;;4.63;;
10154;SDS011;5118;48.570;7.916;2024-02-21T03:22:40;8.90;;;5.20;;
10154;SDS011;5118;48.570;7.916;2024-02-21T03:25:09;10.23;;;5.23;;
10154;SDS011;5118;48.570;7.916;2024-02-21T03:27:38;13.07;;;5.20;;
10154;SDS011;5118;48.570;7.916;2024-02-21T03:30:08;8.17;;;5.40;;
10154;SDS011;5118;48.570;7.916;2024-02-21T03:32:37;6.73;;;4.90;;
10154;SDS011;5118;48.570;7.916;2024-02-21T03:35:06;9.57;;;5.00;;
10154;SDS011;5118;48.570;7.916;2024-02-21T03:37:35;10.67;;;5.00;;
10154;SDS011;5118;48.570;7.916;2024-02-21T03:40:06;9.77;;;4.77;;
10154;SDS011;5118;48.570;7.916;2024-02-21T03:42:35;10.70;;;5.20;;
10154;SDS011;5118;48.570;7.916;2024-02-21T03:45:05;11.30;;;5.40;;
10154;SDS011;5118;48.570;7.916;2024-02-21T03:47:35;11.23;;;5.47;;
10154;SDS011;5118;48.570;7.916;2024-02-21T03:50:04;10.43;;;5.33;;
10154;SDS011;5118;48.570;7.916;2024-02-21T03:52:34;7.93;;;4.93;;
10154;SDS011;5118;48.570;7.916;2024-02-21T03:55:03;12.50;;;6.13;;
10154;SDS011;5118;48.570;7.916;2024-02-21T03:57:34;13.63;;;7.23;;
10154;SDS011;5118;48.570;7.916;2024-02-21T04:00:03;9.50;;;5.23;;
10154;SDS011;5118;48.570;7.916;2024-02-21T04:02:41;13.63;;;4.90;;
10154;SDS011;5118;48.570;7.916;2024-02-21T04:05:10;10.40;;;4.80;;
10154;SDS011;5118;48.570;7.916;2024-02-21T04:07:39;10.20;;;5.60;;
10154;SDS011;5118;48.570;7.916;2024-02-21T04:10:08;11.83;;;6.53;;
10154;SDS011;5118;48.570;7.916;2024-02-21T04:12:37;10.47;;;6.47;;
10154;SDS011;5118;48.570;7.916;2024-02-21T04:15:06;10.37;;;5.60;;
10154;SDS011;5118;48.570;7.916;2024-02-21T04:17:34;8.30;;;5.37;;
10154;SDS011;5118;48.570;7.916;2024-02-21T04:20:05;9.63;;;5.40;;
10154;SDS011;5118;48.570;7.916;2024-02-21T04:22:35;10.97;;;5.80;;
10154;SDS011;5118;48.570;7.916;2024-02-21T04:25:04;9.33;;;5.63;;
10154;SDS011;5118;48.570;7.916;2024-02-21T04:27:33;10.13;;;5.90;;
10154;SDS011;5118;48.570;7.916;2024-02-21T04:30:02;13.33;;;6.90;;
10154;SDS011;5118;48.570;7.916;2024-02-21T04:32:31;11.70;;;6.50;;
10154;SDS011;5118;48.570;7.916;2024-02-21T04:34:59;10.90;;;5.93;;
10154;SDS011;5118;48.570;7.916;2024-02-21T04:37:29;10.73;;;5.07;;
10154;SDS011;5118;48.570;7.916;2024-02-21T04:39:58;11.90;;;5.17;;
10154;SDS011;5118;48.570;7.916;2024-02-21T04:42:27;12.73;;;5.93;;
10154;SDS011;5118;48.570;7.916;2024-02-21T04:44:57;9.40;;;5.80;;
10154;SDS011;5118;48.570;7.916;2024-02-21T04:47:25;12.87;;;6.63;;
10154;SDS011;5118;48.570;7.916;2024-02-21T04:49:54;9.23;;;5.83;;
10154;SDS011;5118;48.570;7.916;2024-02-21T04:52:22;9.23;;;5.30;;
10154;SDS011;5118;48.570;7.916;2024-02-21T04:54:52;8.97;;;5.50;;
10154;SDS011;5118;48.570;7.916;2024-02-21T04:57:21;8.63;;;5.67;;
10154;SDS011;5118;48.570;7.916;2024-02-21T04:59:49;12.07;;;6.03;;
10154;SDS011;5118;48.570;7.916;2024-02-21T05:02:20;12.07;;;6.73;;
10154;SDS011;5118;48.570;7.916;2024-02-21T05:04:51;10.97;;;6.50;;
10154;SDS011;5118;48.570;7.916;2024-02-21T05:07:20;11.67;;;6.30;;
10154;SDS011;5118;48.570;7.916;2024-02-21T05:09:48;12.43;;;6.17;;
10154;SDS011;5118;48.570;7.916;2024-02-21T05:12:18;13.67;;;6.47;;
10154;SDS011;5118;48.570;7.916;2024-02-21T05:14:47;10.93;;;6.20;;
10154;SDS011;5118;48.570;7.916;2024-02-21T05:17:15;11.50;;;6.00;;
10154;SDS011;5118;48.570;7.916;2024-02-21T05:19:44;13.37;;;5.73;;
10154;SDS011;5118;48.570;7.916;2024-02-21T05:22:12;10.33;;;5.33;;
10154;SDS011;5118;48.570;7.916;2024-02-21T05:24:41;8.40;;;5.50;;
10154;SDS011;5118;48.570;7.916;2024-02-21T05:27:09;10.53;;;5.97;;
10154;SDS011;5118;48.570;7.916;2024-02-21T05:29:39;12.07;;;5.60;;
10154;SDS011;5118;48.570;7.916;2024-02-21T05:32:07;12.67;;;6.13;;
10154;SDS011;5118;48.570;7.916;2024-02-21T05:34:36;11.67;;;6.57;;
10154;SDS011;5118;48.570;7.916;2024-02-21T05:37:04;11.70;;;6.47;;
10154;SDS011;5118;48.570;7.916;2024-02-21T05:39:33;10.07;;;5.77;;
10154;SDS011;5118;48.570;7.916;2024-02-21T05:42:01;28.70;;;17.67;;
10154;SDS011;5118;48.570;7.916;2024-02-21T05:44:29;45.50;;;28.77;;
10154;SDS011;5118;48.570;7.916;2024-02-21T05:46:59;13.20;;;9.60;;
10154;SDS011;5118;48.570;7.916;2024-02-21T05:49:28;9.77;;;7.23;;
10154;SDS011;5118;48.570;7.916;2024-02-21T05:51:56;11.80;;;6.87;;
10154;SDS011;5118;48.570;7.916;2024-02-21T05:54:25;11.10;;;6.00;;
10154;SDS011;5118;48.570;7.916;2024-02-21T05:56:54;10.43;;;7.07;;
10154;SDS011;5118;48.570;7.916;2024-02-21T05:59:23;12.63;;;7.73;;
10154;SDS011;5118;48.570;7.916;2024-02-21T06:01:55;11.87;;;7.77;;
10154;SDS011;5118;48.570;7.916;2024-02-21T06:04:26;12.53;;;7.70;;
10154;SDS011;5118;48.570;7.916;2024-02-21T06:06:55;12.93;;;6.53;;
10154;SDS011;5118;48.570;7.916;2024-02-21T06:09:23;12.20;;;7.20;;
10154;SDS011;5118;48.570;7.916;2024-02-21T06:11:52;10.73;;;6.93;;
10154;SDS011;5118;48.570;7.916;2024-02-21T06:14:20;13.23;;;6.40;;
10154;SDS011;5118;48.570;7.916;2024-02-21T06:16:48;9.43;;;6.00;;
10154;SDS011;5118;48.570;7.916;2024-02-21T06:19:17;13.37;;;6.30;;
10154;SDS011;5118;48.570;7.916;2024-02-21T06:21:48;11.53;;;6.73;;
10154;SDS011;5118;48.570;7.916;2024-02-21T06:24:17;9.03;;;6.57;;
10154;SDS011;5118;48.570;7.916;2024-02-21T06:26:45;11.43;;;6.10;;
10154;SDS011;5118;48.570;7.916;2024-02-21T06:29:13;15.77;;;6.73;;
10154;SDS011;5118;48.570;7.916;2024-02-21T06:31:42;12.13;;;7.10;;
10154;SDS011;5118;48.570;7.916;2024-02-21T06:34:11;12.93;;;7.63;;
10154;SDS011;5118;48.570;7.916;2024-02-21T06:36:39;11.97;;;7.10;;
10154;SDS011;5118;48.570;7.916;2024-02-21T06:39:09;11.07;;;6.43;;
10154;SDS011;5118;48.570;7.916;2024-02-21T06:41:38;11.17;;;6.07;;
10154;SDS011;5118;48.570;7.916;2024-02-21T06:44:07;10.50;;;5.80;;
10154;SDS011;5118;48.570;7.916;2024-02-21T06:46:38;11.97;;;5.40;;
10154;SDS011;5118;48.570;7.916;2024-02-21T06:49:07;9.83;;;5.83;;
10154;SDS011;5118;48.570;7.916;2024-02-21T06:51:35;10.43;;;5.50;;
10154;SDS011;5118;48.570;7.916;2024-02-21T06:54:04;11.20;;;6.00;;
10154;SDS011;5118;48.570;7.916;2024-02-21T06:56:35;12.17;;;5.87;;
10154;SDS011;5118;48.570;7.916;2024-02-21T06:59:04;11.13;;;6.20;;
10154;SDS011;5118;48.570;7.916;2024-02-21T07:01:33;11.57;;;6.13;;
10154;SDS011;5118;48.570;7.916;2024-02-21T07:04:01;8.87;;;5.50;;
10154;SDS011;5118;48.570;7.916;2024-02-21T07:06:29;12.27;;;5.13;;
10154;SDS011;5118;48.570;7.916;2024-02-21T07:09:02;10.80;;;5.40;;
10154;SDS011;5118;48.570;7.916;2024-02-21T07:11:30;10.47;;;5.90;;
10154;SDS011;5118;48.570;7.916;2024-02-21T07:14:00;8.90;;;5.03;;
10154;SDS011;5118;48.570;7.916;2024-02-21T07:16:30;9.47;;;5.10;;
10154;SDS011;5118;48.570;7.916;2024-02-21T07:19:00;10.93;;;4.83;;
10154;SDS011;5118;48.570;7.916;2024-02-21T07:21:28;8.63;;;4.80;;
10154;SDS011;5118;48.570;7.916;2024-02-21T07:23:57;8.37;;;4.90;;
10154;SDS011;5118;48.570;7.916;2024-02-21T07:26:25;7.83;;;4.47;;
10154;SDS011;5118;48.570;7.916;2024-02-21T07:28:54;8.33;;;4.60;;
10154;SDS011;5118;48.570;7.916;2024-02-21T07:31:23;10.80;;;5.27;;
10154;SDS011;5118;48.570;7.916;2024-02-21T07:33:52;9.73;;;4.70;;
10154;SDS011;5118;48.570;7.916;2024-02-21T07:36:25;8.83;;;4.30;;
10154;SDS011;5118;48.570;7.916;2024-02-21T07:38:55;10.80;;;4.80;;
10154;SDS011;5118;48.570;7.916;2024-02-21T07:41:24;8.77;;;4.43;;
10154;SDS011;5118;48.570;7.916;2024-02-21T07:43:53;8.77;;;5.03;;
10154;SDS011;5118;48.570;7.916;2024-02-21T07:46:21;12.20;;;5.20;;
10154;SDS011;5118;48.570;7.916;2024-02-21T07:48:51;11.83;;;5.27;;
10154;SDS011;5118;48.570;7.916;2024-02-21T07:51:20;9.47;;;4.77;;
10154;SDS011;5118;48.570;7.916;2024-02-21T07:53:48;9.13;;;5.27;;
10154;SDS011;5118;48.570;7.916;2024-02-21T07:56:16;13.07;;;5.70;;
10154;SDS011;5118;48.570;7.916;2024-02-21T07:58:45;8.75;;;5.20;;
10154;SDS011;5118;48.570;7.916;2024-02-21T08:01:17;8.90;;;5.20;;
10154;SDS011;5118;48.570;7.916;2024-02-21T08:03:48;11.20;;;5.50;;
10154;SDS011;5118;48.570;7.916;2024-02-21T08:06:17;8.25;;;5.25;;
10154;SDS011;5118;48.570;7.916;2024-02-21T08:08:45;8.50;;;5.27;;
10154;SDS011;5118;48.570;7.916;2024-02-21T08:11:14;8.70;;;4.77;;
10154;SDS011;5118;48.570;7.916;2024-02-21T08:13:44;7.73;;;4.33;;
10154;SDS011;5118;48.570;7.916;2024-02-21T08:16:13;8.00;;;4.23;;
10154;SDS011;5118;48.570;7.916;2024-02-21T08:18:43;6.97;;;4.60;;
10154;SDS011;5118;48.570;7.916;2024-02-21T08:21:13;10.17;;;4.50;;
10154;SDS011;5118;48.570;7.916;2024-02-21T08:23:41;11.43;;;4.97;;
10154;SDS011;5118;48.570;7.916;2024-02-21T08:26:11;8.53;;;4.90;;
10154;SDS011;5118;48.570;7.916;2024-02-21T08:28:39;7.87;;;4.57;;
10154;SDS011;5118;48.570;7.916;2024-02-21T08:31:07;9.27;;;4.90;;
10154;SDS011;5118;48.570;7.916;2024-02-21T08:33:36;9.47;;;5.20;;
10154;SDS011;5118;48.570;7.916;2024-02-21T08:36:05;8.47;;;5.30;;
10154;SDS011;5118;48.570;7.916;2024-02-21T08:38:37;10.20;;;5.17;;
10154;SDS011;5118;48.570;7.916;2024-02-21T08:41:05;9.67;;;4.90;;
10154;SDS011;5118;48.570;7.916;2024-02-21T08:43:34;8.60;;;5.90;;
10154;SDS011;5118;48.570;7.916;2024-02-21T08:46:02;7.50;;;5.30;;
10154;SDS011;5118;48.570;7.916;2024-02-21T08:48:31;8.43;;;5.07;;
10154;SDS011;5118;48.570;7.916;2024-02-21T08:51:00;10.10;;;6.63;;
10154;SDS011;5118;48.570;7.916;2024-02-21T08:53:29;10.30;;;7.20;;
10154;SDS011;5118;48.570;7.916;2024-02-21T08:55:59;9.67;;;5.60;;
10154;SDS011;5118;48.570;7.916;2024-02-21T08:58:30;8.13;;;6.00;;
10154;SDS011;5118;48.570;7.916;2024-02-21T09:00:58;11.33;;;7.17;;
10154;SDS011;5118;48.570;7.916;2024-02-21T09:03:26;11.33;;;5.77;;
10154;SDS011;5118;48.570;7.916;2024-02-21T09:05:57;8.53;;;5.10;;
10154;SDS011;5118;48.570;7.916;2024-02-21T09:08:27;9.43;;;6.43;;
10154;SDS011;5118;48.570;7.916;2024-02-21T09:10:56;10.97;;;6.23;;
10154;SDS011;5118;48.570;7.916;2024-02-21T09:13:26;12.33;;;5.40;;
10154;SDS011;5118;48.570;7.916;2024-02-21T09:15:55;11.97;;;5.53;;
10154;SDS011;5118;48.570;7.916;2024-02-21T09:18:26;8.73;;;5.20;;
10154;SDS011;5118;48.570;7.916;2024-02-21T09:20:54;7.97;;;5.43;;
10154;SDS011;5118;48.570;7.916;2024-02-21T09:23:23;8.87;;;5.70;;
10154;SDS011;5118;48.570;7.916;2024-02-21T09:25:52;7.47;;;5.10;;
10154;SDS011;5118;48.570;7.916;2024-02-21T09:28:22;7.57;;;5.07;;
10154;SDS011;5118;48.570;7.916;2024-02-21T09:30:52;6.70;;;4.90;;
10154;SDS011;5118;48.570;7.916;2024-02-21T09:33:21;9.70;;;5.17;;
10154;SDS011;5118;48.570;7.916;2024-02-21T09:35:58;8.60;;;4.70;;
10154;SDS011;5118;48.570;7.916;2024-02-21T09:38:26;6.70;;;4.33;;
10154;SDS011;5118;48.570;7.916;2024-02-21T09:40:58;8.63;;;4.67;;
10154;SDS011;5118;48.570;7.916;2024-02-21T09:43:28;8.73;;;5.90;;
10154;SDS011;5118;48.570;7.916;2024-02-21T09:45:58;10.20;;;4.70;;
10154;SDS011;5118;48.570;7.916;2024-02-21T09:48:30;8.97;;;4.73;;
10154;SDS011;5118;48.570;7.916;2024-02-21T09:51:10;8.73;;;4.57;;
10154;SDS011;5118;48.570;7.916;2024-02-21T09:53:42;7.83;;;4.60;;
10154;SDS011;5118;48.570;7.916;2024-02-21T09:56:32;7.47;;;4.20;;
10154;SDS011;5118;48.570;7.916;2024-02-21T09:59:05;10.37;;;7.30;;
10154;SDS011;5118;48.570;7.916;2024-02-21T10:01:36;11.10;;;5.20;;
10154;SDS011;5118;48.570;7.916;2024-02-21T10:04:05;8.57;;;5.10;;
10154;SDS011;5118;48.570;7.916;2024-02-21T10:06:34;11.70;;;6.33;;
10154;SDS011;5118;48.570;7.916;2024-02-21T10:09:04;9.07;;;5.73;;
10154;SDS011;5118;48.570;7.916;2024-02-21T10:11:34;8.00;;;5.90;;
10154;SDS011;5118;48.570;7.916;2024-02-21T10:14:03;8.23;;;4.87;;
10154;SDS011;5118;48.570;7.916;2024-02-21T10:16:33;8.60;;;4.50;;
10154;SDS011;5118;48.570;7.916;2024-02-21T10:19:03;7.67;;;4.10;;
10154;SDS011;5118;48.570;7.916;2024-02-21T10:21:31;8.77;;;4.20;;
10154;SDS011;5118;48.570;7.916;2024-02-21T10:24:00;6.03;;;4.00;;
10154;SDS011;5118;48.570;7.916;2024-02-21T10:26:28;7.67;;;3.93;;
10154;SDS011;5118;48.570;7.916;2024-02-21T10:29:06;8.90;;;3.93;;
10154;SDS011;5118;48.570;7.916;2024-02-21T10:31:34;6.80;;;3.63;;
10154;SDS011;5118;48.570;7.916;2024-02-21T10:34:04;7.40;;;3.80;;
10154;SDS011;5118;48.570;7.916;2024-02-21T10:36:33;7.43;;;3.80;;
10154;SDS011;5118;48.570;7.916;2024-02-21T10:39:02;7.45;;;3.50;;
10154;SDS011;5118;48.570;7.916;2024-02-21T10:41:30;10.97;;;4.03;;
10154;SDS011;5118;48.570;7.916;2024-02-21T10:44:04;6.20;;;3.40;;
10154;SDS011;5118;48.570;7.916;2024-02-21T10:46:34;6.57;;;3.40;;
10154;SDS011;5118;48.570;7.916;2024-02-21T10:49:06;9.23;;;3.57;;
10154;SDS011;5118;48.570;7.916;2024-02-21T10:51:40;6.77;;;3.43;;
10154;SDS011;5118;48.570;7.916;2024-02-21T10:54:13;8.90;;;3.43;;
10154;SDS011;5118;48.570;7.916;2024-02-21T10:56:51;8.40;;;4.10;;
10154;SDS011;5118;48.570;7.916;2024-02-21T10:59:21;6.67;;;3.10;;
10154;SDS011;5118;48.570;7.916;2024-02-21T11:01:53;6.90;;;3.50;;
10154;SDS011;5118;48.570;7.916;2024-02-21T11:04:26;6.10;;;3.10;;
10154;SDS011;5118;48.570;7.916;2024-02-21T11:06:58;6.47;;;3.20;;
10154;SDS011;5118;48.570;7.916;2024-02-21T11:09:30;5.43;;;3.10;;
10154;SDS011;5118;48.570;7.916;2024-02-21T11:12:01;6.40;;;3.30;;
10154;SDS011;5118;48.570;7.916;2024-02-21T11:14:31;6.33;;;3.60;;
10154;SDS011;5118;48.570;7.916;2024-02-21T11:17:02;5.90;;;3.50;;
10154;SDS011;5118;48.570;7.916;2024-02-21T11:19:32;8.00;;;3.87;;
10154;SDS011;5118;48.570;7.916;2024-02-21T11:22:01;12.37;;;3.43;;
10154;SDS011;5118;48.570;7.916;2024-02-21T11:24:31;7.27;;;3.80;;
10154;SDS011;5118;48.570;7.916;2024-02-21T11:27:08;7.03;;;3.60;;
10154;SDS011;5118;48.570;7.916;2024-02-21T11:29:40;6.13;;;3.17;;
10154;SDS011;5118;48.570;7.916;2024-02-21T11:32:10;6.20;;;3.30;;
10154;SDS011;5118;48.570;7.916;2024-02-21T11:34:40;6.20;;;3.13;;
10154;SDS011;5118;48.570;7.916;2024-02-21T11:37:13;7.20;;;3.60;;
10154;SDS011;5118;48.570;7.916;2024-02-21T11:39:43;8.67;;;4.20;;
10154;SDS011;5118;48.570;7.916;2024-02-21T11:42:13;8.23;;;5.10;;
10154;SDS011;5118;48.570;7.916;2024-02-21T11:44:42;8.80;;;5.27;;
10154;SDS011;5118;48.570;7.916;2024-02-21T11:47:10;7.57;;;3.90;;
10154;SDS011;5118;48.570;7.916;2024-02-21T11:49:42;8.77;;;4.83;;
10154;SDS011;5118;48.570;7.916;2024-02-21T11:52:13;8.30;;;5.40;;
10154;SDS011;5118;48.570;7.916;2024-02-21T11:54:42;6.93;;;4.73;;
10154;SDS011;5118;48.570;7.916;2024-02-21T11:57:10;7.27;;;3.70;;
10154;SDS011;5118;48.570;7.916;2024-02-21T11:59:40;6.37;;;3.83;;
10154;SDS011;5118;48.570;7.916;2024-02-21T12:02:08;8.30;;;5.20;;
10154;SDS011;5118;48.570;7.916;2024-02-21T12:04:37;6.37;;;3.83;;
10154;SDS011;5118;48.570;7.916;2024-02-21T12:07:07;7.20;;;4.60;;
10154;SDS011;5118;48.570;7.916;2024-02-21T12:09:36;7.10;;;3.90;;
10154;SDS011;5118;48.570;7.916;2024-02-21T12:12:05;7.30;;;3.10;;
10154;SDS011;5118;48.570;7.916;2024-02-21T12:14:34;5.10;;;2.80;;
10154;SDS011;5118;48.570;7.916;2024-02-21T12:17:04;5.17;;;2.80;;
10154;SDS011;5118;48.570;7.916;2024-02-21T12:19:33;7.20;;;4.07;;
10154;SDS011;5118;48.570;7.916;2024-02-21T12:22:02;7.10;;;3.00;;
10154;SDS011;5118;48.570;7.916;2024-02-21T12:24:34;5.57;;;3.40;;
10154;SDS011;5118;48.570;7.916;2024-02-21T12:27:05;5.87;;;3.70;;
10154;SDS011;5118;48.570;7.916;2024-02-21T12:29:33;6.13;;;3.30;;
10154;SDS011;5118;48.570;7.916;2024-02-21T12:32:02;5.87;;;3.77;;
10154;SDS011;5118;48.570;7.916;2024-02-21T12:34:31;4.75;;;3.45;;
10154;SDS011;5118;48.570;7.916;2024-02-21T12:37:18;8.20;;;3.90;;
10154;SDS011;5118;48.570;7.916;2024-02-21T12:39:49;4.43;;;3.07;;
10154;SDS011;5118;48.570;7.916;2024-02-21T12:42:17;6.20;;;3.43;;
10154;SDS011;5118;48.570;7.916;2024-02-21T12:44:46;7.03;;;3.97;;
10154;SDS011;5118;48.570;7.916;2024-02-21T12:47:14;6.37;;;3.37;;
10154;SDS011;5118;48.570;7.916;2024-02-21T12:49:42;5.97;;;3.40;;
10154;SDS011;5118;48.570;7.916;2024-02-21T12:52:12;5.33;;;3.27;;
10154;SDS011;5118;48.570;7.916;2024-02-21T12:54:41;5.13;;;3.00;;
10154;SDS011;5118;48.570;7.916;2024-02-21T12:57:11;4.80;;;3.00;;
10154;SDS011;5118;48.570;7.916;2024-02-21T12:59:39;7.40;;;3.60;;
10154;SDS011;5118;48.570;7.916;2024-02-21T13:02:07;5.87;;;3.40;;
10154;SDS011;5118;48.570;7.916;2024-02-21T13:04:36;5.73;;;3.50;;
10154;SDS011;5118;48.570;7.916;2024-02-21T13:07:07;6.20;;;3.23;;
10154;SDS011;5118;48.570;7.916;2024-02-21T13:09:36;5.00;;;2.83;;
10154;SDS011;5118;48.570;7.916;2024-02-21T13:12:04;7.17;;;3.33;;
10154;SDS011;5118;48.570;7.916;2024-02-21T13:14:35;6.97;;;3.53;;
10154;SDS011;5118;48.570;7.916;2024-02-21T13:17:06;6.13;;;4.23;;
10154;SDS011;5118;48.570;7.916;2024-02-21T13:19:35;5.97;;;3.80;;
10154;SDS011;5118;48.570;7.916;2024-02-21T13:22:03;5.43;;;3.50;;
10154;SDS011;5118;48.570;7.916;2024-02-21T13:24:32;5.93;;;3.37;;
10154;SDS011;5118;48.570;7.916;2024-02-21T13:27:00;6.43;;;3.30;;
10154;SDS011;5118;48.570;7.916;2024-02-21T13:29:30;5.33;;;3.60;;
10154;SDS011;5118;48.570;7.916;2024-02-21T13:31:59;5.00;;;3.50;;
10154;SDS011;5118;48.570;7.916;2024-02-21T13:34:28;6.70;;;4.30;;
10154;SDS011;5118;48.570;7.916;2024-02-21T13:36:56;6.50;;;3.87;;
10154;SDS011;5118;48.570;7.916;2024-02-21T13:39:25;7.27;;;4.10;;
10154;SDS011;5118;48.570;7.916;2024-02-21T13:41:54;5.33;;;3.50;;
10154;SDS011;5118;48.570;7.916;2024-02-21T13:44:23;5.97;;;3.90;;
10154;SDS011;5118;48.570;7.916;2024-02-21T13:46:52;5.40;;;3.60;;
10154;SDS011;5118;48.570;7.916;2024-02-21T13:49:22;6.90;;;3.97;;
10154;SDS011;5118;48.570;7.916;2024-02-21T13:51:50;6.40;;;3.83;;
10154;SDS011;5118;48.570;7.916;2024-02-21T13:54:19;5.73;;;3.60;;
10154;SDS011;5118;48.570;7.916;2024-02-21T13:56:48;10.60;;;4.37;;
10154;SDS011;5118;48.570;7.916;2024-02-21T13:59:16;6.30;;;4.10;;
10154;SDS011;5118;48.570;7.916;2024-02-21T14:01:45;6.10;;;3.67;;
10154;SDS011;5118;48.570;7.916;2024-02-21T14:04:13;5.73;;;3.83;;
10154;SDS011;5118;48.570;7.916;2024-02-21T14:06:43;6.03;;;3.30;;
10154;SDS011;5118;48.570;7.916;2024-02-21T14:09:11;6.63;;;4.32;;
10154;SDS011;5118;48.570;7.916;2024-02-21T14:11:40;7.05;;;4.60;;
10154;SDS011;5118;48.570;7.916;2024-02-21T14:14:08;4.95;;;3.20;;
10154;SDS011;5118;48.570;7.916;2024-02-21T14:16:37;5.80;;;3.45;;
10154;SDS011;5118;48.570;7.916;2024-02-21T14:19:05;5.97;;;3.60;;
10154;SDS011;5118;48.570;7.916;2024-02-21T14:21:35;10.35;;;6.20;;
10154;SDS011;5118;48.570;7.916;2024-02-21T14:24:05;7.90;;;5.70;;
10154;SDS011;5118;48.570;7.916;2024-02-21T14:26:34;4.40;;;3.05;;
10154;SDS011;5118;48.570;7.916;2024-02-21T14:29:03;6.87;;;3.40;;
10154;SDS011;5118;48.570;7.916;2024-02-21T14:31:31;4.37;;;3.20;;
10154;SDS011;5118;48.570;7.916;2024-02-21T14:34:00;6.83;;;3.63;;
10154;SDS011;5118;48.570;7.916;2024-02-21T14:36:29;5.23;;;2.87;;
10154;SDS011;5118;48.570;7.916;2024-02-21T14:38:59;6.80;;;3.20;;
10154;SDS011;5118;48.570;7.916;2024-02-21T14:41:29;5.77;;;3.30;;
10154;SDS011;5118;48.570;7.916;2024-02-21T14:43:57;4.77;;;2.60;;
10154;SDS011;5118;48.570;7.916;2024-02-21T14:46:30;5.43;;;2.80;;
10154;SDS011;5118;48.570;7.916;2024-02-21T14:48:59;4.30;;;2.50;;
10154;SDS011;5118;48.570;7.916;2024-02-21T14:51:28;4.23;;;2.93;;
10154;SDS011;5118;48.570;7.916;2024-02-21T14:53:57;4.23;;;2.50;;
10154;SDS011;5118;48.570;7.916;2024-02-21T14:56:25;4.07;;;2.60;;
10154;SDS011;5118;48.570;7.916;2024-02-21T14:58:55;7.13;;;3.77;;
10154;SDS011;5118;48.570;7.916;2024-02-21T15:01:36;4.10;;;2.53;;
10154;SDS011;5118;48.570;7.916;2024-02-21T15:04:06;2.70;;;2.40;;
10154;SDS011;5118;48.570;7.916;2024-02-21T15:06:35;4.53;;;2.50;;
10154;SDS011;5118;48.570;7.916;2024-02-21T15:09:04;4.60;;;2.40;;